Time;durP1;ratioP1;P1;durP2;ratioP2;P2;SDS_P1;SDS_P2;PMS_P1;PMS_P2;Temp;Humidity;BMP_temperature;BMP_pressure;BME280_temperature;BME280_humidity;BME280_pressure;Samples;Min_cycle;Max_cycle;Signal;HPM_P1;HPM_P2
2023/01/16 00:01:23;;;;;;;8.88;1.30;;;;;;;0.55;79.19;99408.03;4912563;29;20135;-72
2023/01/16 00:03:50;;;;;;;7.13;0.93;;;;;;;0.53;78.79;99414.25;4914188;29;20071;-72
2023/01/16 00:06:17;;;;;;;6.75;0.93;;;;;;;0.55;78.79;99408.88;4914989;29;20036;-71
2023/01/16 00:08:44;;;;;;;6.72;0.90;;;;;;;0.48;79.31;99391.88;4912987;29;20425;-71
2023/01/16 00:11:11;;;;;;;4.25;0.90;;;;;;;0.53;79.08;99398.41;4908057;29;20059;-71
2023/01/16 00:13:38;;;;;;;6.35;1.10;;;;;;;0.54;78.75;99399.28;4912796;29;20505;-71
2023/01/16 00:16:05;;;;;;;8.95;1.02;;;;;;;0.58;78.38;99397.22;4913768;29;20505;-71
2023/01/16 00:18:32;;;;;;;6.07;1.17;;;;;;;0.61;78.16;99394.34;4913739;29;20417;-71
2023/01/16 00:20:58;;;;;;;5.78;1.10;;;;;;;0.61;78.73;99399.59;4913366;29;20048;-71
2023/01/16 00:23:25;;;;;;;4.90;1.00;;;;;;;0.58;78.18;99398.06;4910865;29;20048;-71
2023/01/16 00:25:51;;;;;;;5.18;1.08;;;;;;;0.57;78.13;99398.16;4914848;29;20052;-71
2023/01/16 00:28:18;;;;;;;2.88;0.85;;;;;;;0.58;78.52;99398.06;4912599;29;20052;-71
2023/01/16 00:30:44;;;;;;;3.63;1.35;;;;;;;0.51;78.41;99397.72;4911531;29;22288;-71
2023/01/16 00:33:11;;;;;;;4.97;1.08;;;;;;;0.49;78.58;99390.91;4912482;29;20145;-71
2023/01/16 00:35:38;;;;;;;4.72;0.98;;;;;;;0.49;78.72;99393.53;4912708;29;20052;-70
2023/01/16 00:38:04;;;;;;;2.30;0.85;;;;;;;0.44;78.57;99395.75;4911278;29;20063;-71
2023/01/16 00:40:31;;;;;;;7.20;1.25;;;;;;;0.42;78.83;99395.84;4913408;29;20048;-72
2023/01/16 00:42:58;;;;;;;3.83;0.85;;;;;;;0.40;78.79;99400.44;4908159;29;20390;-70
2023/01/16 00:45:24;;;;;;;3.20;0.93;;;;;;;0.42;78.87;99398.50;4911504;29;20060;-71
2023/01/16 00:47:51;;;;;;;6.60;1.23;;;;;;;0.42;78.62;99395.84;4913376;29;20050;-71
2023/01/16 00:50:17;;;;;;;4.43;1.00;;;;;;;0.34;79.18;99403.56;4913503;29;20055;-71
2023/01/16 00:52:44;;;;;;;5.28;1.02;;;;;;;0.34;79.26;99400.09;4913807;29;20072;-72
2023/01/16 00:55:11;;;;;;;6.22;1.13;;;;;;;0.32;79.58;99400.22;4912906;29;20044;-70
2023/01/16 00:57:37;;;;;;;4.18;0.80;;;;;;;0.27;79.58;99403.25;4913481;29;20050;-71
2023/01/16 01:00:05;;;;;;;5.25;1.00;;;;;;;0.25;79.33;99391.13;4912915;29;20064;-71
2023/01/16 01:02:31;;;;;;;6.90;1.17;;;;;;;0.26;79.38;99403.34;4913388;29;20044;-72
2023/01/16 01:04:58;;;;;;;7.85;1.00;;;;;;;0.22;79.67;99400.13;4912823;29;20413;-70
2023/01/16 01:07:24;;;;;;;7.43;1.83;;;;;;;0.19;80.19;99408.31;4912946;29;20054;-71
2023/01/16 01:09:51;;;;;;;5.40;1.05;;;;;;;0.13;79.86;99398.28;4913063;29;20397;-71
2023/01/16 01:12:17;;;;;;;4.45;1.02;;;;;;;0.09;80.38;99403.91;4911809;29;20060;-71
2023/01/16 01:14:44;;;;;;;6.22;1.08;;;;;;;0.11;80.61;99404.63;4913032;29;20556;-71
2023/01/16 01:17:10;;;;;;;4.40;1.25;;;;;;;0.05;80.74;99409.44;4913381;29;20052;-72
2023/01/16 01:19:37;;;;;;;3.58;1.20;;;;;;;0.03;80.54;99406.09;4913116;29;20171;-71
2023/01/16 01:22:03;;;;;;;8.43;1.00;;;;;;;0.05;80.39;99405.94;4912814;29;20485;-71
2023/01/16 01:24:30;;;;;;;3.70;1.17;;;;;;;0.00;80.75;99403.69;4913197;29;20064;-70
2023/01/16 01:26:56;;;;;;;5.13;1.00;;;;;;;-0.03;80.76;99403.09;4913809;29;20051;-71
2023/01/16 01:29:23;;;;;;;4.93;0.95;;;;;;;-0.07;81.04;99394.63;4913265;29;20083;-71
2023/01/16 01:31:50;;;;;;;5.40;0.90;;;;;;;-0.05;81.24;99390.06;4912576;29;20048;-72
2023/01/16 01:34:16;;;;;;;3.45;0.98;;;;;;;-0.13;81.19;99392.47;4914151;29;20131;-72
2023/01/16 01:36:43;;;;;;;6.15;1.45;;;;;;;-0.16;81.22;99400.63;4916279;29;20429;-72
2023/01/16 01:39:09;;;;;;;7.50;0.98;;;;;;;-0.16;81.23;99400.63;4916279;29;20048;-71
2023/01/16 01:41:36;;;;;;;6.47;1.63;;;;;;;-0.16;81.72;99390.06;4915913;29;20059;-71
2023/01/16 01:44:41;;;;;;;7.70;1.77;;;;;;;-0.25;82.14;99407.47;4915681;29;20048;-72
2023/01/16 01:47:08;;;;;;;6.03;1.02;;;;;;;-0.24;81.98;99395.97;4915989;29;20048;-71
2023/01/16 01:49:36;;;;;;;7.50;1.25;;;;;;;-0.24;82.39;99400.41;4915105;29;20421;-71
2023/01/16 01:52:05;;;;;;;2.92;0.90;;;;;;;-0.24;82.27;99388.06;4916190;29;20068;-70
2023/01/16 01:54:40;;;;;;;6.55;0.95;;;;;;;-0.27;82.39;99384.84;4915839;29;20520;-71
2023/01/16 01:57:12;;;;;;;4.47;1.42;;;;;;;-0.26;82.72;99387.38;4915575;29;20048;-71
2023/01/16 01:59:46;;;;;;;7.38;1.88;;;;;;;-0.27;82.73;99395.38;4908388;29;20074;-70
2023/01/16 02:02:20;;;;;;;5.63;1.17;;;;;;;-0.32;82.82;99390.50;4913989;29;20044;-72
2023/01/16 02:04:49;;;;;;;6.88;1.38;;;;;;;-0.28;82.81;99396.34;4915149;29;20052;-72
2023/01/16 02:07:24;;;;;;;5.65;1.20;;;;;;;-0.26;82.53;99392.63;4915358;29;20155;-71
2023/01/16 02:12:47;;;;;;;3.63;0.95;;;;;;;-0.29;83.02;99382.34;4915126;29;20476;-71
2023/01/16 02:15:14;;;;;;;6.50;1.45;;;;;;;-0.30;82.62;99371.91;4916116;29;20052;-72
2023/01/16 02:20:33;;;;;;;9.10;1.40;;;;;;;-0.26;82.79;99370.69;4915802;29;20347;-71
2023/01/16 02:23:25;;;;;;;5.13;1.05;;;;;;;-0.27;83.03;99382.22;4913897;29;20074;-71
2023/01/16 02:26:04;;;;;;;6.45;1.08;;;;;;;-0.30;83.38;99379.81;4915359;29;20079;-71
2023/01/16 02:28:47;;;;;;;2.80;0.88;;;;;;;-0.29;83.25;99376.25;4915714;29;20421;-72
2023/01/16 02:31:41;;;;;;;7.68;1.10;;;;;;;-0.33;83.50;99377.41;4914390;29;20051;-71
2023/01/16 02:34:26;;;;;;;4.13;0.77;;;;;;;-0.27;83.36;99379.56;4915398;29;20115;-71
2023/01/16 02:37:11;;;;;;;5.03;1.15;;;;;;;-0.26;83.69;99378.59;4915653;29;20052;-71
2023/01/16 02:40:00;;;;;;;5.10;1.10;;;;;;;-0.26;83.30;99375.97;4915910;29;20052;-71
2023/01/16 02:42:33;;;;;;;9.60;0.98;;;;;;;-0.22;83.17;99366.88;4914199;29;20110;-71
2023/01/16 02:45:23;;;;;;;4.93;1.30;;;;;;;-0.22;83.35;99367.72;4914868;29;20406;-70
2023/01/16 02:48:04;;;;;;;3.78;1.10;;;;;;;-0.20;83.02;99349.13;4903274;29;20052;-70
2023/01/16 02:50:55;;;;;;;6.50;1.05;;;;;;;-0.20;82.89;99365.75;4915767;29;20047;-71
2023/01/16 02:53:46;;;;;;;3.38;1.10;;;;;;;-0.09;83.31;99356.16;4914563;29;20040;-71
2023/01/16 02:56:19;;;;;;;4.85;1.20;;;;;;;-0.13;82.65;99349.47;4914243;29;20050;-70
2023/01/16 02:58:48;;;;;;;4.85;1.10;;;;;;;-0.23;83.21;99344.94;4913808;29;20171;-72
2023/01/16 03:01:17;;;;;;;7.70;1.17;;;;;;;-0.21;83.41;99350.09;4914282;29;20048;-70
2023/01/16 03:03:53;;;;;;;5.78;1.23;;;;;;;-0.37;83.88;99344.38;4902903;29;20458;-72
2023/01/16 03:06:19;;;;;;;4.53;1.00;;;;;;;-0.45;84.67;99342.38;4904527;29;20139;-71
2023/01/16 03:09:24;;;;;;;3.78;1.05;;;;;;;-0.45;84.29;99334.47;4913698;29;20095;-71
2023/01/16 03:12:25;;;;;;;3.10;1.00;;;;;;;-0.42;85.12;99336.84;4915277;29;20599;-72
2023/01/16 03:14:55;;;;;;;5.45;1.05;;;;;;;-0.50;85.42;99336.66;4914130;29;20051;-72
2023/01/16 03:17:51;;;;;;;4.07;1.20;;;;;;;-0.67;86.09;99338.00;4914670;29;20403;-71
2023/01/16 03:20:38;;;;;;;4.80;1.15;;;;;;;-0.64;86.01;99332.47;4914202;29;20047;-70
2023/01/16 03:23:51;;;;;;;5.00;1.10;;;;;;;-0.68;86.06;99323.13;4902091;29;20050;-71
2023/01/16 03:26:28;;;;;;;9.85;1.13;;;;;;;-0.79;86.88;99325.78;4869808;29;20047;-71
2023/01/16 03:28:55;;;;;;;4.07;1.02;;;;;;;-0.81;86.93;99317.19;4914925;29;20048;-71
2023/01/16 03:31:35;;;;;;;12.35;1.00;;;;;;;-0.81;87.21;99309.28;4909586;29;20505;-71
2023/01/16 03:34:21;;;;;;;4.55;1.10;;;;;;;-0.75;87.22;99309.59;4914505;29;20485;-71
2023/01/16 03:36:56;;;;;;;1.92;0.70;;;;;;;-0.74;87.57;99299.94;4907534;29;20059;-71
2023/01/16 03:39:28;;;;;;;7.00;1.10;;;;;;;-0.84;87.59;99296.38;4914398;29;20055;-72
2023/01/16 03:42:03;;;;;;;7.60;1.08;;;;;;;-0.90;88.18;99303.78;4914722;29;20139;-71
2023/01/16 03:44:37;;;;;;;2.85;1.02;;;;;;;-0.98;88.76;99295.66;4914469;29;20044;-71
2023/01/16 03:47:08;;;;;;;3.88;1.13;;;;;;;-0.88;88.86;99297.53;4925853;29;20051;-70
2023/01/16 03:49:40;;;;;;;4.72;1.05;;;;;;;-0.94;88.47;99304.16;4937839;29;20130;-68
2023/01/16 03:52:08;;;;;;;;;;;;;;;-0.99;89.06;99301.91;4938121;29;20032;-69
2023/01/16 03:54:58;;;;;;;2.67;1.10;;;;;;;-0.90;88.34;99293.25;4938945;29;19913;-70
2023/01/16 03:57:36;;;;;;;6.63;1.27;;;;;;;-0.82;88.35;99295.25;4937652;29;20040;-70
2023/01/16 04:00:04;;;;;;;6.57;1.30;;;;;;;-0.81;88.07;99288.22;4938272;29;20100;-70
2023/01/16 04:02:48;;;;;;;4.40;0.90;;;;;;;-0.88;88.35;99282.59;4938847;29;20059;-70
2023/01/16 04:05:17;;;;;;;6.68;1.02;;;;;;;-0.81;88.43;99282.97;4937652;29;20042;-69
2023/01/16 04:07:51;;;;;;;3.72;0.80;;;;;;;-0.76;87.96;99278.16;4938437;29;20091;-70
2023/01/16 04:10:22;;;;;;;7.40;1.27;;;;;;;-0.76;87.97;99273.72;4938426;29;20028;-69
2023/01/16 04:12:54;;;;;;;5.30;1.00;;;;;;;-0.81;88.45;99267.16;4938462;29;20050;-69
2023/01/16 04:15:23;;;;;;;5.55;1.33;;;;;;;-0.79;88.81;99259.97;4938362;29;20067;-70
2023/01/16 04:17:50;;;;;;;6.47;0.95;;;;;;;-0.77;88.14;99255.41;4938194;29;20043;-69
2023/01/16 04:20:17;;;;;;;8.63;2.25;;;;;;;-0.69;87.98;99250.34;4928335;29;20052;-70
2023/01/16 04:22:48;;;;;;;5.13;1.42;;;;;;;-0.62;88.23;99248.06;4913688;29;20059;-71
2023/01/16 04:25:17;;;;;;;5.97;1.10;;;;;;;-0.60;87.90;99244.34;4913451;29;20506;-72
2023/01/16 04:27:44;;;;;;;7.25;1.48;;;;;;;-0.62;87.92;99240.16;4913466;29;20578;-69
2023/01/16 04:30:11;;;;;;;6.40;1.42;;;;;;;-0.59;88.38;99238.13;4912607;29;20044;-70
2023/01/16 04:32:38;;;;;;;3.65;1.35;;;;;;;-0.58;87.78;99236.31;4914061;29;20071;-70
2023/01/16 04:35:05;;;;;;;6.22;1.27;;;;;;;-0.58;87.77;99234.50;4913726;29;20072;-70
2023/01/16 04:37:33;;;;;;;8.88;1.70;;;;;;;-0.62;88.17;99221.72;4912861;29;20048;-71
2023/01/16 04:39:59;;;;;;;3.92;0.98;;;;;;;-0.71;88.31;99226.78;4912089;29;20059;-71
2023/01/16 04:42:27;;;;;;;6.22;1.40;;;;;;;-0.84;88.65;99230.53;4913835;29;20048;-71
2023/01/16 04:44:53;;;;;;;4.07;1.05;;;;;;;-0.87;88.96;99225.53;4913310;29;20052;-71
2023/01/16 04:47:20;;;;;;;4.28;1.13;;;;;;;-0.85;89.22;99216.50;4913619;29;20420;-70
2023/01/16 04:49:46;;;;;;;7.70;1.70;;;;;;;-0.91;89.32;99217.88;4913651;29;20083;-71
2023/01/16 04:52:13;;;;;;;5.38;1.67;;;;;;;-0.95;89.28;99211.19;4912397;29;20048;-70
2023/01/16 04:54:40;;;;;;;5.55;1.35;;;;;;;-1.00;90.17;99212.50;4912000;29;20056;-71
2023/01/16 04:57:06;;;;;;;3.95;1.58;;;;;;;-1.08;90.25;99205.22;4914167;29;20095;-71
2023/01/16 04:59:33;;;;;;;6.72;1.52;;;;;;;-1.06;90.31;99203.28;4896440;29;20059;-71
2023/01/16 05:02:00;;;;;;;14.32;1.80;;;;;;;-1.14;90.52;99208.34;4912237;29;20519;-71
2023/01/16 05:04:26;;;;;;;4.70;1.40;;;;;;;-1.09;90.87;99202.69;4913667;29;20130;-71
2023/01/16 05:06:53;;;;;;;5.45;1.58;;;;;;;-1.08;90.83;99199.97;4912962;29;20402;-71
2023/01/16 05:09:20;;;;;;;5.97;1.42;;;;;;;-1.09;90.52;99197.44;4914310;29;20417;-71
2023/01/16 05:11:46;;;;;;;4.68;1.70;;;;;;;-1.18;90.78;99189.31;4915079;29;20063;-71
2023/01/16 05:14:12;;;;;;;6.00;1.52;;;;;;;-1.33;91.77;99185.31;4916990;29;20044;-71
2023/01/16 05:16:43;;;;;;;5.75;1.55;;;;;;;-1.23;91.35;99180.97;4916200;29;20054;-69
2023/01/16 05:19:10;;;;;;;7.45;1.45;;;;;;;-1.25;92.10;99177.63;4917037;29;20081;-71
2023/01/16 05:21:36;;;;;;;5.85;1.60;;;;;;;-1.29;92.31;99183.25;4916494;29;20416;-70
2023/01/16 05:24:03;;;;;;;7.30;1.60;;;;;;;-1.36;92.45;99185.53;4916082;29;20056;-71
2023/01/16 05:26:30;;;;;;;6.90;1.90;;;;;;;-1.25;92.16;99172.34;4915955;29;20059;-72
2023/01/16 05:28:57;;;;;;;7.47;2.30;;;;;;;-1.25;91.94;99189.94;4916612;29;20439;-71
2023/01/16 05:31:24;;;;;;;5.72;2.45;;;;;;;-1.28;91.31;99179.66;4916638;29;20404;-71
2023/01/16 05:33:50;;;;;;;7.38;2.17;;;;;;;-1.31;91.86;99172.84;4916402;29;20403;-71
2023/01/16 05:36:17;;;;;;;5.20;2.00;;;;;;;-1.30;91.41;99171.91;4916482;29;20047;-72
2023/01/16 05:38:43;;;;;;;3.00;1.45;;;;;;;-1.26;91.79;99178.59;4916767;29;20139;-71
2023/01/16 05:41:10;;;;;;;8.05;2.70;;;;;;;-1.21;91.40;99173.78;4912817;29;20501;-70
2023/01/16 05:43:37;;;;;;;6.95;2.28;;;;;;;-1.17;90.68;99174.38;4916604;29;20071;-71
2023/01/16 05:46:04;;;;;;;7.50;1.67;;;;;;;-1.20;90.26;99158.81;4915151;29;20508;-71
2023/01/16 05:48:35;;;;;;;6.25;1.60;;;;;;;-1.16;90.31;99160.25;4915827;29;20095;-71
2023/01/16 05:51:02;;;;;;;;;;;;;;;-1.19;90.12;99160.53;4916166;29;20099;-71
2023/01/16 05:53:30;;;;;;;6.40;1.48;;;;;;;-1.27;90.05;99157.66;4915649;29;20282;-71
2023/01/16 05:55:58;;;;;;;8.57;1.88;;;;;;;-1.21;90.31;99149.28;4916229;29;20138;-72
2023/01/16 05:58:25;;;;;;;3.65;1.35;;;;;;;-1.15;90.53;99148.78;4915206;29;20127;-71
2023/01/16 06:00:51;;;;;;;5.05;1.83;;;;;;;-1.26;90.07;99149.66;4916222;29;20055;-70
2023/01/16 06:03:18;;;;;;;11.93;2.00;;;;;;;-1.17;90.58;99148.88;4915474;29;20067;-70
2023/01/16 06:05:44;;;;;;;5.95;1.70;;;;;;;-1.22;90.78;99150.25;4915934;29;20056;-71
2023/01/16 06:08:11;;;;;;;9.25;1.80;;;;;;;-1.17;90.50;99148.06;4916361;29;20044;-71
2023/01/16 06:10:37;;;;;;;5.03;1.67;;;;;;;-1.18;90.57;99139.34;4917270;29;20080;-70
2023/01/16 06:13:04;;;;;;;7.15;1.48;;;;;;;-1.26;91.11;99146.19;4915319;29;20048;-71
2023/01/16 06:15:31;;;;;;;5.20;1.55;;;;;;;-1.18;90.69;99139.34;4915326;29;20066;-71
2023/01/16 06:17:58;;;;;;;4.43;1.35;;;;;;;-1.23;90.62;99138.03;4915137;29;20059;-72
2023/01/16 06:20:24;;;;;;;7.95;1.98;;;;;;;-1.18;90.44;99135.88;4915568;29;20055;-71
2023/01/16 06:22:51;;;;;;;10.07;1.95;;;;;;;-1.17;90.17;99133.09;4915887;29;20052;-71
2023/01/16 06:25:17;;;;;;;8.32;2.08;;;;;;;-1.16;90.22;99124.25;4915097;29;20049;-71
2023/01/16 06:27:49;;;;;;;9.70;1.60;;;;;;;-1.13;89.99;99128.41;4915870;29;20131;-71
2023/01/16 06:30:16;;;;;;;;;;;;;;;-1.14;89.43;99126.75;4916543;29;20048;-71
2023/01/16 06:32:44;;;;;;;8.82;2.03;;;;;;;-1.08;89.92;99125.44;4916261;29;19930;-71
2023/01/16 06:35:10;;;;;;;9.30;1.70;;;;;;;-1.11;89.35;99121.25;4915730;29;20429;-71
2023/01/16 06:37:37;;;;;;;6.65;1.95;;;;;;;-1.14;89.37;99119.69;4916173;29;20052;-70
2023/01/16 06:40:04;;;;;;;9.15;1.60;;;;;;;-1.15;88.86;99117.19;4915760;29;20054;-71
2023/01/16 06:42:30;;;;;;;5.28;1.50;;;;;;;-1.12;88.95;99122.22;4915485;29;20048;-70
2023/01/16 06:44:56;;;;;;;7.15;1.50;;;;;;;-1.13;88.72;99125.78;4905631;29;20058;-70
2023/01/16 06:47:23;;;;;;;5.88;1.80;;;;;;;-1.05;88.80;99123.38;4906293;29;20154;-70
2023/01/16 06:49:50;;;;;;;7.70;1.50;;;;;;;-1.05;88.37;99130.44;4913736;29;20127;-72
2023/01/16 06:52:16;;;;;;;7.47;1.73;;;;;;;-1.07;88.33;99112.13;4914993;29;20059;-71
2023/01/16 06:54:43;;;;;;;10.93;1.92;;;;;;;-0.96;88.51;99109.47;4914558;29;20407;-72
2023/01/16 06:57:09;;;;;;;6.18;1.60;;;;;;;-0.96;87.82;99109.47;4916119;29;20058;-72
2023/01/16 06:59:36;;;;;;;3.92;1.40;;;;;;;-1.00;88.08;99108.03;4914469;29;20371;-71
2023/01/16 07:02:02;;;;;;;7.53;1.40;;;;;;;-0.95;87.81;99111.16;4914818;29;20454;-71
2023/01/16 07:04:29;;;;;;;5.30;1.83;;;;;;;-0.95;87.58;99108.53;4914723;29;20082;-72
2023/01/16 07:06:55;;;;;;;9.95;1.92;;;;;;;-0.87;86.94;99107.03;4915299;29;20052;-72
2023/01/16 07:09:28;;;;;;;7.38;1.77;;;;;;;-0.88;87.04;99095.69;4914773;29;20040;-71
2023/01/16 07:11:55;;;;;;;5.00;1.90;;;;;;;-0.88;86.92;99111.47;4913707;29;20051;-71
2023/01/16 07:22:43;;;;;;;10.73;1.80;;;;;;;-0.91;87.36;99107.28;4913794;29;20056;-74
2023/01/16 07:25:15;;;;;;;11.00;2.10;;;;;;;-0.96;86.92;99101.56;4913508;29;20489;-74
2023/01/16 07:27:43;;;;;;;9.63;2.00;;;;;;;-0.93;86.89;99103.13;4914797;29;20135;-74
2023/01/16 07:30:11;;;;;;;5.57;1.65;;;;;;;-0.92;87.15;99087.22;4912411;29;20048;-74
2023/01/16 07:32:38;;;;;;;4.25;1.73;;;;;;;-0.92;86.67;99091.59;4913926;29;20059;-74
2023/01/16 07:35:05;;;;;;;9.77;2.10;;;;;;;-0.88;86.62;99087.78;4897331;29;20079;-74
2023/01/16 07:37:32;;;;;;;6.40;1.50;;;;;;;-0.87;86.40;99086.81;4913723;29;20082;-74
2023/01/16 07:39:58;;;;;;;9.82;2.55;;;;;;;-0.96;86.45;99079.66;4913089;29;20493;-74
2023/01/16 07:42:25;;;;;;;13.23;1.88;;;;;;;-0.93;86.51;99082.88;4903308;29;20399;-74
2023/01/16 07:44:52;;;;;;;10.30;2.00;;;;;;;-0.91;86.54;99085.41;4912283;29;20079;-73
2023/01/16 07:47:18;;;;;;;6.13;1.50;;;;;;;-0.96;86.85;99082.31;4913897;29;20075;-73
2023/01/16 07:49:45;;;;;;;5.78;1.73;;;;;;;-0.95;86.93;99082.19;4913818;29;20048;-73
2023/01/16 07:52:11;;;;;;;8.57;2.10;;;;;;;-1.04;87.72;99080.31;4913603;29;20056;-74
2023/01/16 07:54:40;;;;;;;7.68;1.88;;;;;;;-1.13;88.05;99065.25;4913345;29;20532;-74
2023/01/16 07:57:06;;;;;;;8.38;1.85;;;;;;;-1.03;87.91;99060.91;4912924;29;20126;-74
2023/01/16 07:59:33;;;;;;;7.47;2.00;;;;;;;-1.14;87.89;99051.28;4914014;29;20052;-74
2023/01/16 08:02:01;;;;;;;4.55;1.45;;;;;;;-1.04;88.03;99054.00;4913748;29;20067;-74
2023/01/16 08:04:29;;;;;;;13.20;1.90;;;;;;;-0.92;87.46;99057.38;4913520;29;20450;-74
2023/01/16 08:06:58;;;;;;;4.95;1.50;;;;;;;-0.87;86.63;99043.88;4913549;29;20541;-74
2023/01/16 08:09:24;;;;;;;7.97;1.70;;;;;;;-0.86;86.64;99051.63;4912630;29;20048;-74
2023/01/16 08:12:00;;;;;;;4.93;1.63;;;;;;;-0.90;86.55;99047.56;4912764;29;20071;-74
2023/01/16 08:14:27;;;;;;;6.47;1.77;;;;;;;-1.00;86.60;99042.25;4895985;29;20502;-74
2023/01/16 08:16:54;;;;;;;8.80;1.48;;;;;;;-0.93;86.37;99040.75;4912479;29;20055;-74
2023/01/16 08:19:20;;;;;;;7.03;1.75;;;;;;;-0.76;86.21;99030.63;4913712;29;20521;-74
2023/01/16 08:21:47;;;;;;;11.35;1.67;;;;;;;-0.84;85.65;99028.66;4913366;29;20057;-74
2023/01/16 08:24:14;;;;;;;7.93;1.60;;;;;;;-0.81;85.68;99017.03;4913144;29;20076;-74
2023/01/16 08:26:41;;;;;;;5.10;1.60;;;;;;;-0.78;85.94;99011.47;4913088;29;20055;-74
2023/01/16 08:29:08;;;;;;;6.22;1.27;;;;;;;-0.73;85.42;99022.47;4913055;29;20135;-74
2023/01/16 08:31:35;;;;;;;5.95;1.83;;;;;;;-0.65;85.05;99012.13;4912281;29;20383;-73
2023/01/16 08:34:02;;;;;;;6.53;1.67;;;;;;;-0.68;84.87;99018.47;4914721;29;20044;-74
2023/01/16 08:36:28;;;;;;;5.97;1.70;;;;;;;-0.68;84.01;99004.47;4913644;29;20048;-74
2023/01/16 08:38:55;;;;;;;8.88;1.88;;;;;;;-0.62;83.96;98996.06;4913605;29;20063;-74
2023/01/16 08:52:41;;;;;;;6.82;1.52;;;;;;;-0.47;82.02;98968.41;4913648;29;20497;-73
2023/01/16 08:55:07;;;;;;;10.77;1.55;;;;;;;-0.51;82.01;98966.16;4916817;29;20084;-73
2023/01/16 08:57:34;;;;;;;6.85;1.33;;;;;;;-0.44;81.54;98962.03;4917236;29;20051;-74
2023/01/16 09:00:02;;;;;;;7.75;1.80;;;;;;;-0.43;81.30;98954.00;4915461;29;20095;-74
2023/01/16 09:02:31;;;;;;;5.45;1.55;;;;;;;-0.44;81.32;98947.03;4916760;29;20453;-74
2023/01/16 09:04:57;;;;;;;5.97;1.20;;;;;;;-0.52;80.86;98944.25;4917573;29;20056;-74
2023/01/16 09:07:24;;;;;;;4.15;0.98;;;;;;;-0.37;80.85;98946.53;4906852;29;20056;-74
2023/01/16 09:09:52;;;;;;;6.95;1.45;;;;;;;-0.37;80.56;98943.88;4916449;29;20509;-73
2023/01/16 09:15:04;;;;;;;5.93;1.63;;;;;;;-0.35;80.26;98931.41;4913938;29;20671;-74
2023/01/16 09:17:31;;;;;;;6.63;1.73;;;;;;;-0.28;80.44;98929.91;4915305;29;20076;-74
2023/01/16 09:19:58;;;;;;;5.43;1.65;;;;;;;-0.26;80.08;98918.28;4917002;29;20052;-74
2023/01/16 09:22:27;;;;;;;9.48;1.38;;;;;;;-0.30;79.98;98916.84;4882844;29;20052;-74
2023/01/16 09:24:54;;;;;;;8.25;1.48;;;;;;;-0.29;79.34;98909.81;4907870;29;20052;-74
2023/01/16 09:27:22;;;;;;;8.98;1.23;;;;;;;-0.19;79.01;98916.75;4914468;29;20082;-74
2023/01/16 09:29:50;;;;;;;6.63;1.55;;;;;;;-0.19;78.80;98915.94;4916832;29;20044;-74
2023/01/16 09:32:18;;;;;;;6.75;1.40;;;;;;;-0.23;79.10;98906.59;4916582;29;20093;-74
2023/01/16 09:34:45;;;;;;;7.43;1.50;;;;;;;-0.13;78.86;98906.63;4912459;29;20051;-73
2023/01/16 09:37:12;;;;;;;10.40;1.92;;;;;;;-0.20;78.54;98899.25;4916262;29;20067;-73
2023/01/16 09:39:38;;;;;;;4.40;1.10;;;;;;;-0.22;78.51;98903.84;4915922;29;20059;-73
2023/01/16 09:45:04;;;;;;;6.82;1.40;;;;;;;0.01;78.02;98893.06;4914974;29;20052;-74
2023/01/16 09:47:32;;;;;;;4.60;1.63;;;;;;;0.03;77.56;98896.41;4915799;29;20135;-74
2023/01/16 09:50:13;;;;;;;6.97;1.15;;;;;;;0.09;76.67;98887.09;4911452;29;20047;-74
2023/01/16 09:58:36;;;;;;;5.13;1.58;;;;;;;1.15;71.45;98859.69;4915608;29;20075;-74
2023/01/16 10:01:42;;;;;;;9.15;1.90;;;;;;;1.59;70.63;98859.88;4915797;29;20048;-74
2023/01/16 10:04:19;;;;;;;9.38;2.40;;;;;;;1.89;68.75;98856.09;4914469;29;20052;-74
2023/01/16 10:07:10;;;;;;;8.88;2.30;;;;;;;2.30;66.54;98843.22;4914569;29;20048;-75
2023/01/16 10:10:12;;;;;;;13.00;2.63;;;;;;;2.80;64.77;98830.19;4915522;29;20506;-74
2023/01/16 10:12:39;;;;;;;5.63;1.70;;;;;;;2.78;63.90;98829.50;4896252;29;20294;-74
2023/01/16 10:15:36;;;;;;;6.25;1.40;;;;;;;2.53;63.30;98817.13;4897790;29;20399;-73
2023/01/16 10:18:21;;;;;;;13.30;1.48;;;;;;;2.89;63.31;98823.09;4910881;29;20051;-74
2023/01/16 10:21:01;;;;;;;7.90;1.85;;;;;;;3.30;61.48;98810.03;4913336;29;20126;-74
2023/01/16 10:23:43;;;;;;;9.38;2.30;;;;;;;2.58;61.48;98814.81;4898671;29;20058;-74
2023/01/16 10:26:28;;;;;;;5.60;1.50;;;;;;;3.63;59.78;98798.56;4914684;29;20059;-74
2023/01/16 10:29:30;;;;;;;7.47;2.05;;;;;;;3.36;59.37;98791.69;4915122;29;20091;-75
2023/01/16 10:32:02;;;;;;;12.60;2.30;;;;;;;3.56;58.92;98794.06;4914461;29;20060;-74
2023/01/16 10:34:39;;;;;;;7.28;1.52;;;;;;;3.66;57.87;98789.44;4898818;29;20200;-73
2023/01/16 10:37:06;;;;;;;3.55;1.50;;;;;;;3.76;57.93;98782.19;4916780;29;20119;-74
2023/01/16 10:39:36;;;;;;;9.50;1.52;;;;;;;3.86;56.86;98785.50;4915326;29;20058;-74
2023/01/16 10:50:29;;;;;;;7.22;1.23;;;;;;;3.74;56.81;98747.03;4913143;29;20048;-73
2023/01/16 10:53:04;;;;;;;5.15;1.33;;;;;;;3.66;57.72;98756.81;4915386;29;20448;-73
2023/01/16 10:55:33;;;;;;;6.38;1.67;;;;;;;3.91;57.24;98741.72;4915692;29;20462;-73
2023/01/16 10:58:04;;;;;;;5.25;1.67;;;;;;;4.16;56.08;98734.59;4915570;29;20067;-73
2023/01/16 11:00:35;;;;;;;6.68;1.10;;;;;;;3.95;56.00;98743.06;4915739;29;20048;-74
2023/01/16 11:03:13;;;;;;;7.97;1.42;;;;;;;4.04;56.01;98734.09;4915863;29;20047;-74
2023/01/16 11:05:40;;;;;;;2.40;1.38;;;;;;;4.17;55.45;98725.63;4911520;29;20477;-72
2023/01/16 11:08:10;;;;;;;6.07;1.38;;;;;;;4.46;55.30;98717.16;4915734;29;20052;-72
2023/01/16 11:10:43;;;;;;;10.27;1.50;;;;;;;4.16;54.76;98708.88;4914444;29;20056;-74
2023/01/16 11:18:54;;;;;;;3.13;1.20;;;;;;;4.33;54.45;98691.91;4914828;29;20127;-73
2023/01/16 11:21:28;;;;;;;3.05;1.20;;;;;;;4.05;54.91;98682.69;4913673;29;20501;-73
2023/01/16 11:24:24;;;;;;;11.75;1.63;;;;;;;4.25;55.03;98678.66;4903454;29;20083;-73
2023/01/16 11:26:55;;;;;;;5.80;1.25;;;;;;;4.46;54.02;98690.59;4899182;29;20056;-73
2023/01/16 11:29:25;;;;;;;9.43;1.63;;;;;;;4.33;53.79;98685.78;4915923;29;20075;-73
2023/01/16 11:32:02;;;;;;;4.60;1.27;;;;;;;4.47;53.91;98663.03;4916534;29;20060;-71
2023/01/16 11:34:29;;;;;;;5.95;1.48;;;;;;;4.53;53.27;98649.09;4918350;29;20080;-71
2023/01/16 11:37:00;;;;;;;7.50;1.25;;;;;;;4.58;53.10;98652.84;4917418;29;20048;-72
2023/01/16 11:39:29;;;;;;;3.45;1.15;;;;;;;4.50;52.59;98646.75;4918122;29;20494;-72
2023/01/16 11:41:58;;;;;;;9.38;1.20;;;;;;;4.80;52.53;98639.84;4917343;29;20044;-72
2023/01/16 11:47:26;;;;;;;3.33;1.00;;;;;;;4.44;53.76;98618.25;4919064;29;20595;-70
2023/01/16 11:49:53;;;;;;;5.00;1.08;;;;;;;4.90;53.05;98618.34;4918423;29;20087;-70
2023/01/16 11:52:28;;;;;;;4.00;1.15;;;;;;;4.32;53.45;98610.63;4918525;29;20051;-70
2023/01/16 11:55:00;;;;;;;3.10;1.08;;;;;;;4.21;53.75;98594.22;4917516;29;20055;-70
2023/01/16 11:57:53;;;;;;;6.10;1.25;;;;;;;3.66;55.14;98603.00;4918740;29;20052;-71
2023/01/16 12:00:43;;;;;;;5.88;1.35;;;;;;;4.08;53.58;98587.66;4917725;29;20051;-70
2023/01/16 12:03:21;;;;;;;9.05;1.30;;;;;;;4.26;52.99;98574.16;4917600;29;20048;-71
2023/01/16 12:05:57;;;;;;;6.25;1.73;;;;;;;4.46;52.58;98577.25;4900378;29;20052;-71
2023/01/16 12:08:47;;;;;;;6.10;1.50;;;;;;;4.52;52.62;98565.09;4900731;29;20087;-71
2023/01/16 12:11:26;;;;;;;8.32;1.58;;;;;;;3.64;52.12;98560.72;4900170;29;20131;-71
2023/01/16 12:17:14;;;;;;;4.00;1.17;;;;;;;3.80;52.28;98557.22;4898109;29;20052;-70
2023/01/16 12:19:59;;;;;;;7.35;1.17;;;;;;;3.66;51.93;98550.78;4893918;29;20052;-70
2023/01/16 12:23:01;;;;;;;6.78;1.15;;;;;;;3.81;51.35;98551.75;4894253;29;20048;-72
2023/01/16 12:25:37;;;;;;;;;;;;;;;4.02;51.96;98531.78;4882187;29;20378;-72
2023/01/16 12:28:39;;;;;;;10.32;1.55;;;;;;;4.05;51.10;98523.50;4895608;29;20377;-72
2023/01/16 12:34:16;;;;;;;3.00;0.98;;;;;;;4.68;49.35;98511.06;4895349;29;20047;-72
2023/01/16 12:37:17;;;;;;;6.50;1.77;;;;;;;5.15;48.07;98510.06;4894010;29;20073;-72
2023/01/16 12:40:05;;;;;;;2.72;1.02;;;;;;;5.06;48.93;98496.00;4895083;29;20583;-71
2023/01/16 12:45:30;;;;;;;4.75;1.35;;;;;;;4.15;50.53;98468.38;4894075;29;20410;-70
2023/01/16 12:48:17;;;;;;;2.85;0.90;;;;;;;4.42;49.40;98477.72;4895301;29;20485;-69
2023/01/16 12:51:02;;;;;;;4.38;1.20;;;;;;;4.88;48.57;98468.91;4890511;29;20048;-71
2023/01/16 12:53:41;;;;;;;8.05;1.70;;;;;;;4.87;48.58;98454.81;4889866;29;20044;-71
2023/01/16 12:56:36;;;;;;;9.18;1.50;;;;;;;4.58;49.27;98451.03;4895800;29;20084;-72
2023/01/16 12:59:17;;;;;;;3.20;1.15;;;;;;;3.99;50.37;98439.28;4893962;29;20044;-72
2023/01/16 13:01:48;;;;;;;3.50;0.88;;;;;;;3.95;50.30;98433.47;4895108;29;20056;-71